Time;durP1;ratioP1;P1;durP2;ratioP2;P2;SDS_P1;SDS_P2;PMS_P1;PMS_P2;Temp;Humidity;BMP_temperature;BMP_pressure;BME280_temperature;BME280_humidity;BME280_pressure;Samples;Min_cycle;Max_cycle;Signal;HPM_P1;HPM_P2
2022/05/16 00:01:03;;;;;;;;;;;19.30;61.90;;;;;;5053068;28;835;-68
2022/05/16 00:03:29;;;;;;;;;;;19.30;61.90;;;;;;5035668;28;1227;-69
2022/05/16 00:05:54;;;;;;;;;;;19.30;61.90;;;;;;5053403;28;847;-68
2022/05/16 00:08:20;;;;;;;;;;;19.30;61.90;;;;;;5053509;28;844;-69
2022/05/16 00:10:45;;;;;;;;;;;19.30;61.90;;;;;;5053146;28;880;-69
2022/05/16 00:13:10;;;;;;;;;;;19.30;62.00;;;;;;5053428;28;1209;-69
2022/05/16 00:15:36;;;;;;;;;;;19.30;62.00;;;;;;5053368;28;837;-68
2022/05/16 00:18:02;;;;;;;;;;;19.30;62.00;;;;;;5051981;28;2250;-68
2022/05/16 00:20:27;;;;;;;;;;;19.30;62.00;;;;;;5052427;28;1664;-68
2022/05/16 00:22:53;;;;;;;;;;;19.30;61.90;;;;;;5053091;28;1376;-68
2022/05/16 00:25:18;;;;;;;;;;;19.30;62.00;;;;;;5053249;28;800;-68
2022/05/16 00:27:44;;;;;;;;;;;19.30;62.00;;;;;;5019136;28;1122;-68
2022/05/16 00:30:10;;;;;;;;;;;19.30;62.00;;;;;;5052463;28;1523;-67
2022/05/16 00:32:35;;;;;;;;;;;19.30;62.00;;;;;;5035121;28;1565;-68
2022/05/16 00:35:01;;;;;;;;;;;19.30;62.00;;;;;;5053211;28;1137;-67
2022/05/16 00:37:27;;;;;;;;;;;19.30;62.00;;;;;;5053339;28;1934;-68
2022/05/16 00:39:52;;;;;;;;;;;19.30;62.00;;;;;;5052899;28;947;-67
2022/05/16 00:42:18;;;;;;;;;;;19.30;62.00;;;;;;5053087;28;1217;-67
2022/05/16 00:44:44;;;;;;;;;;;19.30;62.00;;;;;;5035104;28;838;-67
2022/05/16 00:47:09;;;;;;;;;;;19.30;62.00;;;;;;5035348;28;821;-69
2022/05/16 00:49:35;;;;;;;;;;;19.30;62.00;;;;;;5052649;28;1026;-68
2022/05/16 00:52:05;;;;;;;;;;;19.30;62.00;;;;;;5035290;28;1208;-68
2022/05/16 00:54:50;;;;;;;;;;;19.30;62.00;;;;;;5035088;28;833;-68
2022/05/16 00:57:17;;;;;;;;;;;19.30;62.10;;;;;;5052748;28;1023;-68
2022/05/16 00:59:44;;;;;;;;;;;19.30;62.10;;;;;;5034537;28;976;-67
2022/05/16 01:04:55;;;;;;;;;;;19.30;62.10;;;;;;5051818;28;819;-67
2022/05/16 01:07:25;;;;;;;;;;;19.30;62.10;;;;;;5051690;28;832;-68
2022/05/16 01:09:50;;;;;;;;;;;19.30;62.10;;;;;;5034748;28;1185;-68
2022/05/16 01:12:16;;;;;;;;;;;19.20;62.10;;;;;;5052613;28;1302;-67
2022/05/16 01:14:51;;;;;;;;;;;19.30;62.10;;;;;;5034670;28;1270;-67
2022/05/16 01:17:17;;;;;;;;;;;19.30;62.10;;;;;;5034922;28;903;-67
2022/05/16 01:19:42;;;;;;;;;;;19.30;62.10;;;;;;5052446;28;1508;-68
2022/05/16 01:22:23;;;;;;;;;;;19.30;62.10;;;;;;5072580;28;1294;-68
2022/05/16 01:24:49;;;;;;;;;;;19.30;62.10;;;;;;5060992;28;1301;-68
2022/05/16 01:27:14;;;;;;;;;;;19.30;62.10;;;;;;5048776;28;2413;-68
2022/05/16 01:29:40;;;;;;;;;;;19.30;62.10;;;;;;5051973;28;1130;-67
2022/05/16 01:32:05;;;;;;;;;;;19.30;62.10;;;;;;5052338;28;1276;-69
2022/05/16 01:34:30;;;;;;;;;;;19.30;62.20;;;;;;5052088;28;1027;-68
2022/05/16 01:36:56;;;;;;;;;;;19.30;62.10;;;;;;5052373;28;694;-68
2022/05/16 01:39:21;;;;;;;;;;;19.20;62.10;;;;;;5034100;28;1973;-68
2022/05/16 01:41:47;;;;;;;;;;;19.30;62.20;;;;;;5040350;28;1345;-68
2022/05/16 01:44:12;;;;;;;;;;;19.30;62.20;;;;;;5038322;28;746;-68
2022/05/16 01:46:40;;;;;;;;;;;19.30;62.20;;;;;;5021615;28;1378;-68
2022/05/16 01:49:05;;;;;;;;;;;19.30;62.40;;;;;;5038626;28;888;-68
2022/05/16 01:51:31;;;;;;;;;;;19.30;62.20;;;;;;5055708;28;1357;-67
2022/05/16 01:53:56;;;;;;;;;;;19.30;62.20;;;;;;5055617;28;1238;-68
2022/05/16 01:56:22;;;;;;;;;;;19.30;62.20;;;;;;5038114;28;1110;-68
2022/05/16 01:58:48;;;;;;;;;;;19.30;62.20;;;;;;5037932;28;1902;-68
2022/05/16 02:01:14;;;;;;;;;;;19.30;62.20;;;;;;5055641;28;829;-67
2022/05/16 02:03:40;;;;;;;;;;;19.30;62.20;;;;;;5038189;28;1306;-68
2022/05/16 02:06:05;;;;;;;;;;;19.30;62.20;;;;;;5037873;28;1071;-67
2022/05/16 02:08:31;;;;;;;;;;;19.30;62.20;;;;;;5055550;28;847;-68
2022/05/16 02:10:56;;;;;;;;;;;19.30;62.20;;;;;;5037660;28;912;-68
2022/05/16 02:13:22;;;;;;;;;;;19.30;62.20;;;;;;5054262;28;1323;-68
2022/05/16 02:15:47;;;;;;;;;;;19.30;62.20;;;;;;5036479;28;907;-68
2022/05/16 02:18:13;;;;;;;;;;;19.30;62.20;;;;;;5055611;28;1953;-68
2022/05/16 02:20:38;;;;;;;;;;;19.30;62.20;;;;;;5057353;28;1099;-67
2022/05/16 02:25:49;;;;;;;;;;;19.30;62.30;;;;;;5039031;28;2162;-68
2022/05/16 02:28:16;;;;;;;;;;;19.20;62.20;;;;;;5051396;28;1282;-68
2022/05/16 02:30:41;;;;;;;;;;;19.30;62.30;;;;;;5043885;28;1208;-68
2022/05/16 02:33:07;;;;;;;;;;;19.30;62.30;;;;;;5042826;28;1318;-67
2022/05/16 02:35:33;;;;;;;;;;;19.30;62.30;;;;;;5025107;28;1977;-66
2022/05/16 02:37:58;;;;;;;;;;;19.20;62.30;;;;;;5033711;28;1914;-67
2022/05/16 02:40:28;;;;;;;;;;;19.20;62.30;;;;;;5051536;28;1251;-69
2022/05/16 02:42:53;;;;;;;;;;;19.30;62.30;;;;;;5044390;28;1388;-68
2022/05/16 02:45:18;;;;;;;;;;;19.20;62.30;;;;;;5043406;28;1231;-68
2022/05/16 02:47:44;;;;;;;;;;;19.30;62.30;;;;;;5027713;28;1256;-69
2022/05/16 02:50:09;;;;;;;;;;;19.30;62.30;;;;;;5043152;28;1330;-68
2022/05/16 02:52:35;;;;;;;;;;;19.20;62.30;;;;;;5043772;28;1314;-67
2022/05/16 02:55:01;;;;;;;;;;;19.30;62.30;;;;;;5027216;28;1232;-67
2022/05/16 02:57:27;;;;;;;;;;;19.30;62.30;;;;;;5043345;28;1898;-67
2022/05/16 02:59:52;;;;;;;;;;;19.30;62.40;;;;;;5047370;28;2648;-67
2022/05/16 03:02:17;;;;;;;;;;;19.20;62.30;;;;;;5010147;28;1548;-68
2022/05/16 03:04:43;;;;;;;;;;;19.20;62.30;;;;;;5043491;28;1219;-68
2022/05/16 03:07:08;;;;;;;;;;;19.20;62.30;;;;;;5045463;28;1284;-68
2022/05/16 03:09:34;;;;;;;;;;;19.30;62.40;;;;;;5042315;28;1315;-68
2022/05/16 03:11:59;;;;;;;;;;;19.30;62.40;;;;;;5044311;28;1275;-68
2022/05/16 03:14:26;;;;;;;;;;;19.20;62.40;;;;;;5042838;28;1251;-67
2022/05/16 03:16:51;;;;;;;;;;;19.20;62.40;;;;;;5041869;28;1072;-65
2022/05/16 03:19:17;;;;;;;;;;;19.20;62.40;;;;;;5030064;28;1934;-69
2022/05/16 03:21:42;;;;;;;;;;;19.20;62.40;;;;;;5045214;28;1322;-68
2022/05/16 03:24:08;;;;;;;;;;;19.20;62.40;;;;;;5024520;28;1204;-68
2022/05/16 03:26:34;;;;;;;;;;;19.20;62.30;;;;;;5044043;28;1246;-69
2022/05/16 03:28:59;;;;;;;;;;;19.20;62.40;;;;;;5043176;28;1156;-70
2022/05/16 03:31:25;;;;;;;;;;;19.20;62.40;;;;;;5026185;28;1244;-67
2022/05/16 03:33:51;;;;;;;;;;;19.20;62.40;;;;;;5044748;28;1413;-70
2022/05/16 03:36:16;;;;;;;;;;;19.30;62.40;;;;;;5054025;28;936;-69
2022/05/16 03:41:26;;;;;;;;;;;19.20;62.40;;;;;;5053929;28;635;-68
2022/05/16 03:43:51;;;;;;;;;;;19.20;62.40;;;;;;5053984;28;1295;-68
2022/05/16 03:46:17;;;;;;;;;;;19.20;62.40;;;;;;5053746;28;872;-68
2022/05/16 03:48:42;;;;;;;;;;;19.20;62.40;;;;;;5053892;28;911;-68
2022/05/16 03:51:08;;;;;;;;;;;19.20;62.50;;;;;;5035723;28;1007;-68
2022/05/16 03:53:35;;;;;;;;;;;19.20;62.40;;;;;;5053833;28;1187;-69
2022/05/16 03:56:01;;;;;;;;;;;19.20;62.40;;;;;;5052498;28;903;-69
2022/05/16 03:58:26;;;;;;;;;;;19.20;62.40;;;;;;5035836;28;1960;-68
2022/05/16 04:00:52;;;;;;;;;;;19.20;62.50;;;;;;5053290;28;833;-68
2022/05/16 04:03:17;;;;;;;;;;;19.20;62.40;;;;;;5052038;28;1278;-68
2022/05/16 04:05:43;;;;;;;;;;;19.20;62.50;;;;;;5053568;28;947;-68
2022/05/16 04:08:09;;;;;;;;;;;19.20;62.40;;;;;;5053797;28;955;-69
2022/05/16 04:10:34;;;;;;;;;;;19.20;62.40;;;;;;5053288;28;888;-70
2022/05/16 04:13:00;;;;;;;;;;;19.20;62.50;;;;;;5053456;28;1197;-69
2022/05/16 04:15:26;;;;;;;;;;;19.20;62.40;;;;;;5053244;28;857;-68
2022/05/16 04:17:51;;;;;;;;;;;19.20;62.50;;;;;;5056531;28;1987;-67
2022/05/16 04:20:17;;;;;;;;;;;19.20;62.50;;;;;;5067239;28;1122;-68
2022/05/16 04:22:42;;;;;;;;;;;19.20;62.50;;;;;;5074804;23;2068;-68
2022/05/16 04:25:08;;;;;;;;;;;19.20;62.50;;;;;;5035785;28;860;-72
2022/05/16 04:27:34;;;;;;;;;;;19.20;62.50;;;;;;5045862;28;1175;-73
2022/05/16 04:29:59;;;;;;;;;;;19.20;62.50;;;;;;5013452;28;898;-73
2022/05/16 04:32:25;;;;;;;;;;;19.20;62.50;;;;;;5013633;28;1218;-72
2022/05/16 04:34:51;;;;;;;;;;;19.20;62.50;;;;;;5013547;28;856;-72
2022/05/16 04:37:16;;;;;;;;;;;19.20;62.50;;;;;;5013785;28;817;-72
2022/05/16 04:39:42;;;;;;;;;;;19.20;62.50;;;;;;5028363;28;1918;-72
2022/05/16 04:44:51;;;;;;;;;;;19.20;62.50;;;;;;5013436;28;695;-70
2022/05/16 04:47:17;;;;;;;;;;;19.20;62.50;;;;;;5013865;28;876;-73
2022/05/16 04:49:42;;;;;;;;;;;19.20;62.60;;;;;;5013110;28;967;-71
2022/05/16 04:52:11;;;;;;;;;;;19.20;62.50;;;;;;5028698;28;1292;-71
2022/05/16 04:54:36;;;;;;;;;;;19.20;62.60;;;;;;5028609;28;1170;-71
2022/05/16 04:57:02;;;;;;;;;;;19.20;62.60;;;;;;5029234;28;908;-71
2022/05/16 04:59:27;;;;;;;;;;;19.20;62.60;;;;;;5013412;28;1956;-71
2022/05/16 05:01:52;;;;;;;;;;;19.20;62.60;;;;;;5013191;28;857;-71
2022/05/16 05:04:18;;;;;;;;;;;19.20;62.60;;;;;;5013196;28;1295;-71
2022/05/16 05:06:43;;;;;;;;;;;19.20;62.60;;;;;;5013158;28;892;-70
2022/05/16 05:09:09;;;;;;;;;;;19.20;62.60;;;;;;5013045;28;932;-70
2022/05/16 05:14:34;;;;;;;;;;;19.20;63.40;;;;;;5026109;28;1311;-70
2022/05/16 05:17:04;;;;;;;;;;;19.20;62.60;;;;;;5015882;28;844;-70
2022/05/16 05:19:29;;;;;;;;;;;19.20;62.60;;;;;;5045325;28;1898;-70
2022/05/16 05:21:55;;;;;;;;;;;19.20;62.60;;;;;;5035746;28;1250;-70
2022/05/16 05:24:20;;;;;;;;;;;19.20;62.70;;;;;;5036604;28;1119;-69
2022/05/16 05:26:49;;;;;;;;;;;19.20;62.60;;;;;;5048879;28;1158;-69
2022/05/16 05:29:16;;;;;;;;;;;19.20;62.60;;;;;;5016966;28;900;-69
2022/05/16 05:31:41;;;;;;;;;;;19.20;62.60;;;;;;5016747;28;793;-70
2022/05/16 05:34:08;;;;;;;;;;;19.20;62.60;;;;;;5016711;28;1286;-70
2022/05/16 05:36:34;;;;;;;;;;;19.20;63.00;;;;;;5048226;28;920;-71
2022/05/16 05:39:01;;;;;;;;;;;19.20;62.30;;;;;;5048287;28;1977;-70
2022/05/16 05:41:26;;;;;;;;;;;19.20;61.50;;;;;;5048040;28;860;-70
2022/05/16 05:43:52;;;;;;;;;;;19.20;61.00;;;;;;5048433;28;1325;-70
2022/05/16 05:46:17;;;;;;;;;;;19.20;60.70;;;;;;5016721;28;818;-72
2022/05/16 05:48:43;;;;;;;;;;;19.20;60.40;;;;;;5014967;28;1766;-66
2022/05/16 05:51:08;;;;;;;;;;;19.20;59.70;;;;;;5048330;28;2021;-66
2022/05/16 05:53:37;;;;;;;;;;;19.30;59.30;;;;;;5035988;28;1377;-69
2022/05/16 05:56:03;;;;;;;;;;;19.20;59.30;;;;;;5017723;28;1149;-67
2022/05/16 05:58:29;;;;;;;;;;;19.20;58.80;;;;;;5016211;28;1965;-67
2022/05/16 06:00:54;;;;;;;;;;;19.20;58.80;;;;;;5016035;28;806;-66
2022/05/16 06:03:20;;;;;;;;;;;19.20;58.40;;;;;;5016104;28;1208;-66
2022/05/16 06:05:45;;;;;;;;;;;19.20;58.00;;;;;;5016036;28;806;-67
2022/05/16 06:08:11;;;;;;;;;;;19.20;57.60;;;;;;5015898;28;929;-67
2022/05/16 06:10:36;;;;;;;;;;;19.20;57.50;;;;;;5015716;28;848;-66
2022/05/16 06:13:02;;;;;;;;;;;19.20;58.00;;;;;;5015833;28;1200;-66
2022/05/16 06:15:27;;;;;;;;;;;19.20;57.90;;;;;;5016003;28;801;-66
2022/05/16 06:17:52;;;;;;;;;;;19.10;57.60;;;;;;5019082;28;1898;-67
2022/05/16 06:20:18;;;;;;;;;;;19.10;57.50;;;;;;5035356;28;1103;-67
2022/05/16 06:22:43;;;;;;;;;;;19.10;57.60;;;;;;5035191;28;1431;-66
2022/05/16 06:25:31;;;;;;;;;;;19.20;57.40;;;;;;5051071;28;793;-66
2022/05/16 06:27:57;;;;;;;;;;;19.10;57.10;;;;;;5042588;28;1054;-66
2022/05/16 06:30:23;;;;;;;;;;;19.10;57.20;;;;;;5015708;28;1054;-68
2022/05/16 06:32:48;;;;;;;;;;;19.10;57.00;;;;;;5047333;28;1232;-65
2022/05/16 06:35:14;;;;;;;;;;;19.10;57.20;;;;;;5047909;28;865;-66
2022/05/16 06:37:39;;;;;;;;;;;19.10;56.80;;;;;;5047228;28;1962;-65
2022/05/16 06:40:05;;;;;;;;;;;19.10;57.10;;;;;;5013939;28;1169;-67
2022/05/16 06:42:30;;;;;;;;;;;19.10;57.10;;;;;;5015383;28;1194;-68
2022/05/16 06:44:56;;;;;;;;;;;19.10;57.10;;;;;;5015221;28;1031;-68
2022/05/16 06:47:21;;;;;;;;;;;19.10;56.50;;;;;;5015019;28;825;-67
2022/05/16 06:49:47;;;;;;;;;;;19.10;56.20;;;;;;5046909;28;856;-68
2022/05/16 06:52:12;;;;;;;;;;;19.10;56.10;;;;;;5015369;28;1286;-69
2022/05/16 06:54:38;;;;;;;;;;;19.10;56.20;;;;;;5047231;28;825;-68
2022/05/16 06:57:03;;;;;;;;;;;19.10;57.00;;;;;;5015239;28;860;-73
2022/05/16 06:59:29;;;;;;;;;;;19.10;56.50;;;;;;5046817;28;1943;-75
2022/05/16 07:01:54;;;;;;;;;;;19.10;56.30;;;;;;5014942;28;1214;-75
2022/05/16 07:04:20;;;;;;;;;;;19.10;56.20;;;;;;5015153;28;790;-74
2022/05/16 07:06:45;;;;;;;;;;;19.10;56.00;;;;;;5015001;28;801;-74
2022/05/16 07:09:11;;;;;;;;;;;19.10;55.90;;;;;;5046743;28;924;-74
2022/05/16 07:11:36;;;;;;;;;;;19.10;55.70;;;;;;5014870;28;897;-74
2022/05/16 07:14:01;;;;;;;;;;;19.10;55.70;;;;;;5015083;28;1178;-74
2022/05/16 07:16:27;;;;;;;;;;;19.10;55.60;;;;;;5015482;28;904;-73
2022/05/16 07:18:52;;;;;;;;;;;19.10;55.20;;;;;;5026091;28;1894;-71
2022/05/16 07:21:18;;;;;;;;;;;19.10;55.30;;;;;;5046662;28;1178;-73
2022/05/16 07:23:45;;;;;;;;;;;19.10;55.00;;;;;;5014855;28;1233;-73
2022/05/16 07:28:54;;;;;;;;;;;19.10;55.00;;;;;;5041837;28;636;-74
2022/05/16 07:31:19;;;;;;;;;;;19.10;55.00;;;;;;5014358;28;813;-74
2022/05/16 07:33:45;;;;;;;;;;;19.10;55.30;;;;;;5046500;28;1203;-75
2022/05/16 07:36:10;;;;;;;;;;;19.10;55.20;;;;;;5014574;28;818;-74
2022/05/16 07:38:36;;;;;;;;;;;19.10;55.10;;;;;;5013564;28;1890;-75
2022/05/16 07:41:01;;;;;;;;;;;19.10;54.70;;;;;;5014199;28;888;-74
2022/05/16 07:43:27;;;;;;;;;;;19.20;54.20;;;;;;5046153;28;1228;-72
2022/05/16 07:45:52;;;;;;;;;;;19.10;54.30;;;;;;5014104;28;880;-72
2022/05/16 07:48:18;;;;;;;;;;;19.20;54.80;;;;;;5014383;28;845;-71
2022/05/16 07:50:44;;;;;;;;;;;19.20;55.20;;;;;;5045988;28;1035;-73
2022/05/16 07:53:11;;;;;;;;;;;19.20;54.30;;;;;;5046156;28;1208;-73
2022/05/16 07:55:41;;;;;;;;;;;19.20;54.50;;;;;;5045366;28;881;-73
2022/05/16 07:58:06;;;;;;;;;;;19.20;54.70;;;;;;5046051;28;1894;-72
2022/05/16 08:00:32;;;;;;;;;;;19.20;54.50;;;;;;5045472;28;1079;-73
2022/05/16 08:02:57;;;;;;;;;;;19.20;54.10;;;;;;5045863;28;1231;-72
2022/05/16 08:05:23;;;;;;;;;;;19.20;53.90;;;;;;5013951;28;881;-71
2022/05/16 08:10:32;;;;;;;;;;;19.20;54.20;;;;;;5013686;28;604;-72
2022/05/16 08:12:59;;;;;;;;;;;19.20;54.20;;;;;;5013732;28;1193;-73
2022/05/16 08:15:25;;;;;;;;;;;19.20;53.70;;;;;;5013893;28;907;-72
2022/05/16 08:17:51;;;;;;;;;;;19.20;53.20;;;;;;5048310;28;1906;-73
2022/05/16 08:20:16;;;;;;;;;;;19.20;53.60;;;;;;5033120;28;1095;-72
2022/05/16 08:22:42;;;;;;;;;;;19.20;53.60;;;;;;5033586;28;1237;-73
2022/05/16 08:25:08;;;;;;;;;;;19.20;53.40;;;;;;5033469;28;840;-73
2022/05/16 08:27:33;;;;;;;;;;;19.20;53.70;;;;;;5048580;28;1155;-73
2022/05/16 08:29:58;;;;;;;;;;;19.20;53.40;;;;;;5025981;28;2139;-73
2022/05/16 08:32:24;;;;;;;;;;;19.20;53.50;;;;;;5022222;28;1290;-73
2022/05/16 08:34:50;;;;;;;;;;;19.30;53.30;;;;;;5028771;28;1098;-73
2022/05/16 08:40:05;;;;;;;;;;;19.30;53.30;;;;;;5043748;28;1914;-73
2022/05/16 08:42:31;;;;;;;;;;;19.30;53.30;;;;;;5033194;28;1433;-72
2022/05/16 08:45:00;;;;;;;;;;;19.30;53.20;;;;;;5018461;28;1102;-72
2022/05/16 08:47:47;;;;;;;;;;;19.30;53.30;;;;;;5048764;28;1290;-72
2022/05/16 08:50:18;;;;;;;;;;;19.30;53.00;;;;;;5032600;28;959;-72
2022/05/16 08:52:53;;;;;;;;;;;19.30;53.10;;;;;;5048601;28;1219;-72
2022/05/16 08:55:28;;;;;;;;;;;19.40;52.90;;;;;;5048690;28;1058;-73
2022/05/16 08:57:55;;;;;;;;;;;19.40;53.10;;;;;;5030107;28;1961;-73
2022/05/16 09:00:35;;;;;;;;;;;19.40;53.00;;;;;;5044893;28;996;-71
2022/05/16 09:03:02;;;;;;;;;;;19.40;53.00;;;;;;5058853;28;1858;-71
2022/05/16 09:05:39;;;;;;;;;;;19.40;52.90;;;;;;5048038;28;1617;-68
2022/05/16 09:08:06;;;;;;;;;;;19.40;53.00;;;;;;5045916;28;1661;-69
2022/05/16 09:10:37;;;;;;;;;;;19.40;53.00;;;;;;5048124;28;1015;-68
2022/05/16 09:13:05;;;;;;;;;;;19.40;53.50;;;;;;5032785;28;1303;-67
2022/05/16 09:15:31;;;;;;;;;;;19.40;53.40;;;;;;5032750;28;1069;-67
2022/05/16 09:18:15;;;;;;;;;;;19.50;53.00;;;;;;5032794;28;1906;-67
2022/05/16 09:20:58;;;;;;;;;;;19.50;52.80;;;;;;5032283;28;1103;-67
2022/05/16 09:23:25;;;;;;;;;;;19.50;52.70;;;;;;5032673;28;1208;-68
2022/05/16 09:25:55;;;;;;;;;;;19.50;52.90;;;;;;5042745;28;2247;-70
2022/05/16 09:28:37;;;;;;;;;;;19.50;53.10;;;;;;5024265;28;1086;-70
2022/05/16 09:31:10;;;;;;;;;;;19.50;52.80;;;;;;5046418;28;1150;-70
2022/05/16 09:33:36;;;;;;;;;;;19.50;52.70;;;;;;5031886;28;1485;-69
2022/05/16 09:36:02;;;;;;;;;;;19.50;52.80;;;;;;5031260;28;1087;-71
2022/05/16 09:38:28;;;;;;;;;;;19.50;52.50;;;;;;5045299;28;1918;-70
2022/05/16 09:41:00;;;;;;;;;;;19.50;52.30;;;;;;5062372;28;1293;-70
2022/05/16 09:43:26;;;;;;;;;;;19.50;52.00;;;;;;5030348;28;1504;-70
2022/05/16 09:45:56;;;;;;;;;;;19.50;52.70;;;;;;5032173;28;1606;-70
2022/05/16 09:48:22;;;;;;;;;;;19.50;51.80;;;;;;5046180;28;1984;-70
2022/05/16 09:50:59;;;;;;;;;;;19.50;51.50;;;;;;5031387;28;1239;-70
2022/05/16 09:53:36;;;;;;;;;;;19.60;51.40;;;;;;5031151;28;1877;-70
2022/05/16 09:56:05;;;;;;;;;;;19.60;51.40;;;;;;5062231;28;1409;-71
2022/05/16 09:58:34;;;;;;;;;;;19.60;51.10;;;;;;5046524;28;1866;-69
2022/05/16 10:01:00;;;;;;;;;;;19.60;51.00;;;;;;5031848;28;1675;-69
2022/05/16 10:03:36;;;;;;;;;;;19.60;50.70;;;;;;5050384;28;1498;-71
2022/05/16 10:06:03;;;;;;;;;;;19.60;50.80;;;;;;5032143;28;1955;-71
2022/05/16 10:08:33;;;;;;;;;;;19.60;50.90;;;;;;5049387;28;1290;-71
2022/05/16 10:11:00;;;;;;;;;;;19.60;50.80;;;;;;5034851;28;1274;-71
2022/05/16 10:13:25;;;;;;;;;;;19.60;50.60;;;;;;5048402;28;1548;-71
2022/05/16 10:15:52;;;;;;;;;;;19.60;50.90;;;;;;5048739;28;1847;-70
2022/05/16 10:18:18;;;;;;;;;;;19.60;50.70;;;;;;5049868;28;1964;-70
2022/05/16 10:20:48;;;;;;;;;;;19.60;50.30;;;;;;5033831;28;1239;-71
2022/05/16 10:23:34;;;;;;;;;;;19.60;50.70;;;;;;5058181;23;3917;-68
2022/05/16 10:26:00;;;;;;;;;;;19.60;50.50;;;;;;5013444;28;1677;-68
2022/05/16 10:28:32;;;;;;;;;;;19.60;50.20;;;;;;5013146;28;1537;-68
2022/05/16 10:33:42;;;;;;;;;;;19.60;50.70;;;;;;5006176;28;1338;-68
2022/05/16 10:36:09;;;;;;;;;;;19.60;50.80;;;;;;5023138;28;1098;-68
2022/05/16 10:38:37;;;;;;;;;;;19.70;50.30;;;;;;5010682;28;2044;-67
2022/05/16 10:41:02;;;;;;;;;;;19.60;50.50;;;;;;4994957;28;912;-68
2022/05/16 10:43:46;;;;;;;;;;;19.70;50.50;;;;;;4995592;28;1217;-68
2022/05/16 10:46:19;;;;;;;;;;;19.70;50.20;;;;;;4995478;28;1007;-67
2022/05/16 10:48:51;;;;;;;;;;;19.70;50.00;;;;;;5010615;28;972;-68
2022/05/16 10:51:37;;;;;;;;;;;19.60;50.00;;;;;;5009293;28;841;-68
2022/05/16 10:54:04;;;;;;;;;;;19.60;49.90;;;;;;4990831;28;1672;-69
2022/05/16 10:56:36;;;;;;;;;;;19.70;49.90;;;;;;5009251;28;1347;-67
2022/05/16 10:59:02;;;;;;;;;;;19.70;49.80;;;;;;5014607;28;1976;-67
2022/05/16 11:01:37;;;;;;;;;;;19.70;49.70;;;;;;5028538;28;1042;-67
2022/05/16 11:04:21;;;;;;;;;;;19.70;49.20;;;;;;5013766;28;1202;-66
2022/05/16 11:06:46;;;;;;;;;;;19.70;49.30;;;;;;5011326;28;1733;-67
2022/05/16 11:36:16;;;;;;;;;;;19.80;48.10;;;;;;5051059;28;1292;-68
2022/05/16 11:38:51;;;;;;;;;;;19.80;48.90;;;;;;5048925;28;2630;-68
2022/05/16 11:41:35;;;;;;;;;;;19.80;50.00;;;;;;5051845;28;1359;-68
2022/05/16 11:44:23;;;;;;;;;;;19.80;49.30;;;;;;5052543;28;1062;-68
2022/05/16 11:47:01;;;;;;;;;;;19.80;49.10;;;;;;5024930;28;1250;-69
2022/05/16 11:49:35;;;;;;;;;;;19.80;49.80;;;;;;5052151;28;1579;-69
2022/05/16 11:52:01;;;;;;;;;;;19.80;49.50;;;;;;5051961;28;1221;-68
2022/05/16 11:54:27;;;;;;;;;;;19.80;48.50;;;;;;5052328;28;892;-69
2022/05/16 12:02:27;;;;;;;;;;;19.80;48.60;;;;;;5050186;28;2471;-68
2022/05/16 12:05:13;;;;;;;;;;;19.80;48.80;;;;;;5038900;28;2596;-67
2022/05/16 12:07:43;;;;;;;;;;;19.80;49.00;;;;;;5052646;28;1953;-67
2022/05/16 12:10:14;;;;;;;;;;;19.90;48.60;;;;;;5048026;28;1598;-67
2022/05/16 12:12:59;;;;;;;;;;;19.90;46.50;;;;;;5045083;28;1483;-67
2022/05/16 12:15:25;;;;;;;;;;;19.90;47.70;;;;;;5050364;28;1165;-68
2022/05/16 12:17:54;;;;;;;;;;;19.90;47.70;;;;;;5054667;28;1902;-67
2022/05/16 12:20:37;;;;;;;;;;;19.90;47.20;;;;;;5057393;28;1595;-67
2022/05/16 12:23:03;;;;;;;;;;;20.00;48.00;;;;;;5052838;28;843;-67
2022/05/16 12:25:29;;;;;;;;;;;20.00;47.80;;;;;;5052644;28;899;-67
2022/05/16 12:28:10;;;;;;;;;;;20.00;47.20;;;;;;5051850;28;1513;-67
2022/05/16 12:30:39;;;;;;;;;;;20.00;46.30;;;;;;5052602;28;1170;-67
2022/05/16 12:33:05;;;;;;;;;;;20.00;47.10;;;;;;5052689;28;864;-67
2022/05/16 12:35:35;;;;;;;;;;;20.00;46.60;;;;;;5052771;28;1157;-68
2022/05/16 12:38:00;;;;;;;;;;;20.10;46.20;;;;;;5052699;28;1906;-67
2022/05/16 12:40:36;;;;;;;;;;;20.10;48.10;;;;;;5033280;28;1536;-67
2022/05/16 12:43:19;;;;;;;;;;;20.10;47.80;;;;;;5052825;28;1201;-67
2022/05/16 12:45:44;;;;;;;;;;;20.00;47.80;;;;;;5051443;28;841;-67
2022/05/16 12:48:25;;;;;;;;;;;20.10;47.80;;;;;;5040809;28;2487;-68
2022/05/16 12:51:09;;;;;;;;;;;20.10;47.20;;;;;;5049784;28;1448;-68
2022/05/16 12:53:40;;;;;;;;;;;20.10;46.20;;;;;;5051501;28;1291;-68
2022/05/16 12:56:16;;;;;;;;;;;20.10;46.60;;;;;;5050100;28;1286;-68
2022/05/16 12:58:55;;;;;;;;;;;20.10;47.30;;;;;;5050435;28;1907;-67
2022/05/16 13:01:31;;;;;;;;;;;20.10;50.60;;;;;;5046688;28;2338;-68
2022/05/16 13:04:07;;;;;;;;;;;20.10;47.30;;;;;;5029930;28;968;-68
2022/05/16 13:06:38;;;;;;;;;;;20.10;44.50;;;;;;5050451;28;1105;-67
2022/05/16 13:09:09;;;;;;;;;;;20.10;45.60;;;;;;5050614;28;907;-67
2022/05/16 13:11:39;;;;;;;;;;;20.20;45.90;;;;;;5051026;28;1236;-67
2022/05/16 13:14:17;;;;;;;;;;;20.20;45.60;;;;;;5050176;28;1128;-67
2022/05/16 13:16:50;;;;;;;;;;;20.20;45.70;;;;;;5049798;28;943;-67
2022/05/16 13:19:17;;;;;;;;;;;20.20;44.60;;;;;;5056070;28;1893;-67
2022/05/16 13:22:12;;;;;;;;;;;20.20;44.70;;;;;;5050195;28;1286;-67
2022/05/16 13:24:38;;;;;;;;;;;20.20;44.60;;;;;;5038402;28;1218;-68
2022/05/16 13:29:48;;;;;;;;;;;20.20;43.60;;;;;;5052082;28;1156;-68
2022/05/16 13:32:14;;;;;;;;;;;20.20;44.20;;;;;;5052092;28;954;-68
2022/05/16 13:34:47;;;;;;;;;;;20.20;44.60;;;;;;5050635;28;809;-68
2022/05/16 13:37:15;;;;;;;;;;;20.20;44.40;;;;;;5050633;28;1214;-68
2022/05/16 13:39:42;;;;;;;;;;;20.20;44.30;;;;;;5053905;28;1936;-68
2022/05/16 13:42:07;;;;;;;;;;;20.30;43.90;;;;;;5054275;28;1195;-68
2022/05/16 13:44:33;;;;;;;;;;;20.20;43.80;;;;;;5055841;28;1046;-68
2022/05/16 13:47:03;;;;;;;;;;;20.30;44.10;;;;;;5055925;28;900;-68
2022/05/16 13:49:28;;;;;;;;;;;20.30;43.20;;;;;;5054653;28;814;-68
2022/05/16 13:51:54;;;;;;;;;;;20.30;41.60;;;;;;5054149;28;1608;-68
2022/05/16 13:54:20;;;;;;;;;;;20.30;42.50;;;;;;5055675;28;809;-68
2022/05/16 13:56:49;;;;;;;;;;;20.30;43.10;;;;;;5055855;28;971;-68
2022/05/16 13:59:20;;;;;;;;;;;20.30;43.50;;;;;;5055888;28;1898;-68
2022/05/16 14:01:58;;;;;;;;;;;20.30;43.30;;;;;;5055685;28;1221;-68
2022/05/16 14:04:25;;;;;;;;;;;20.30;43.70;;;;;;5055951;28;899;-68
2022/05/16 14:06:51;;;;;;;;;;;20.30;43.40;;;;;;5047781;28;1208;-68
2022/05/16 14:09:16;;;;;;;;;;;20.30;43.10;;;;;;5043931;28;1247;-68
2022/05/16 14:11:41;;;;;;;;;;;20.30;43.60;;;;;;5046943;28;1373;-70
2022/05/16 14:14:08;;;;;;;;;;;20.30;44.80;;;;;;5043274;28;1259;-68
2022/05/16 14:16:37;;;;;;;;;;;20.30;46.40;;;;;;5044790;28;1231;-69
2022/05/16 14:19:12;;;;;;;;;;;20.20;47.30;;;;;;5050887;28;1890;-68
2022/05/16 14:21:58;;;;;;;;;;;20.20;48.20;;;;;;5064428;28;1373;-68
2022/05/16 14:24:24;;;;;;;;;;;20.10;48.40;;;;;;5045833;28;1322;-67
2022/05/16 14:26:50;;;;;;;;;;;20.10;49.40;;;;;;5046251;28;1309;-67
2022/05/16 14:29:33;;;;;;;;;;;20.00;49.60;;;;;;5044574;28;1207;-68
2022/05/16 14:31:59;;;;;;;;;;;20.00;50.00;;;;;;5059868;28;1319;-68
2022/05/16 14:34:26;;;;;;;;;;;19.90;51.30;;;;;;5046698;28;1211;-68
2022/05/16 14:37:01;;;;;;;;;;;19.90;52.50;;;;;;5042731;28;1417;-67
2022/05/16 14:39:27;;;;;;;;;;;19.90;53.40;;;;;;5042669;28;1910;-68
2022/05/16 14:41:53;;;;;;;;;;;19.90;54.00;;;;;;5041632;28;1284;-67
2022/05/16 14:44:19;;;;;;;;;;;19.90;54.10;;;;;;5044532;28;1238;-67
2022/05/16 14:46:55;;;;;;;;;;;19.90;54.30;;;;;;5042791;28;1140;-67
2022/05/16 14:49:21;;;;;;;;;;;19.90;54.60;;;;;;5044585;28;1231;-68
2022/05/16 14:51:46;;;;;;;;;;;19.90;55.10;;;;;;5043260;28;1272;-68
2022/05/16 14:54:16;;;;;;;;;;;19.90;55.30;;;;;;5045954;28;1059;-70
2022/05/16 14:56:41;;;;;;;;;;;19.90;55.50;;;;;;5043299;28;1084;-67
2022/05/16 14:59:07;;;;;;;;;;;19.90;55.70;;;;;;5042141;28;1898;-68
2022/05/16 15:04:16;;;;;;;;;;;19.90;55.60;;;;;;5044757;28;1064;-68
2022/05/16 15:06:42;;;;;;;;;;;19.80;55.80;;;;;;5044682;28;1243;-68
2022/05/16 15:09:11;;;;;;;;;;;19.80;55.80;;;;;;5043446;28;1187;-68
2022/05/16 15:11:51;;;;;;;;;;;19.90;55.80;;;;;;5041949;28;1278;-67
2022/05/16 15:14:16;;;;;;;;;;;19.90;55.80;;;;;;5043895;28;1211;-67
2022/05/16 15:16:42;;;;;;;;;;;19.80;55.80;;;;;;5044299;28;1298;-71
2022/05/16 15:19:08;;;;;;;;;;;19.80;55.90;;;;;;5046314;28;1953;-70
2022/05/16 15:21:34;;;;;;;;;;;19.90;56.10;;;;;;5044447;28;1258;-69
2022/05/16 15:24:03;;;;;;;;;;;19.80;56.10;;;;;;5043683;28;1160;-68
2022/05/16 15:26:28;;;;;;;;;;;19.90;55.80;;;;;;5052874;28;1484;-68
2022/05/16 15:28:54;;;;;;;;;;;19.90;55.70;;;;;;5053232;28;871;-68
2022/05/16 15:31:19;;;;;;;;;;;19.90;55.50;;;;;;5053783;28;1217;-68
2022/05/16 15:33:45;;;;;;;;;;;19.90;56.20;;;;;;5054221;28;943;-68
2022/05/16 15:36:10;;;;;;;;;;;19.80;55.70;;;;;;5054060;28;896;-68
2022/05/16 15:38:37;;;;;;;;;;;19.90;56.40;;;;;;5052742;28;1902;-68
2022/05/16 15:41:03;;;;;;;;;;;19.90;56.60;;;;;;5053751;28;1193;-68